createdAt,value
2022-09-21T00:01:39.547Z,10.11
2022-09-21T00:07:01.395Z,10.23
2022-09-21T00:12:23.176Z,10.29
2022-09-21T00:17:46.467Z,10.38
2022-09-21T00:23:08.259Z,10.46
2022-09-21T00:28:30.057Z,10.51
2022-09-21T00:33:52.923Z,10.60
2022-09-21T00:39:14.687Z,10.58
2022-09-21T00:44:36.677Z,10.62
2022-09-21T00:50:00.973Z,10.58
2022-09-21T00:55:30.451Z,10.72
2022-09-21T01:00:52.543Z,10.78
2022-09-21T01:06:18.087Z,10.73
2022-09-21T01:11:39.817Z,10.78
2022-09-21T01:17:21.648Z,10.76
2022-09-21T01:23:25.351Z,10.77
2022-09-21T01:28:56.358Z,10.81
2022-09-21T01:34:53.376Z,10.79
2022-09-21T01:40:30.886Z,10.91
2022-09-21T01:45:58.978Z,10.86
2022-09-21T01:51:25.776Z,10.86
2022-09-21T01:56:49.602Z,10.59
2022-09-21T02:02:16.603Z,11.01
2022-09-21T02:07:39.403Z,11.04
2022-09-21T02:13:04.772Z,10.93
2022-09-21T02:19:03.644Z,10.88
2022-09-21T02:24:39.500Z,10.87
2022-09-21T02:30:10.326Z,10.72
2022-09-21T02:35:59.642Z,10.98
2022-09-21T02:41:37.748Z,10.98
2022-09-21T02:47:08.556Z,10.96
2022-09-21T02:52:33.679Z,11.02
2022-09-21T02:57:56.145Z,11.02
2022-09-21T03:03:20.596Z,10.96
2022-09-21T03:08:42.364Z,11.05
2022-09-21T03:14:04.426Z,10.97
2022-09-21T03:19:26.627Z,11.05
2022-09-21T03:24:48.548Z,11.10
2022-09-21T03:30:10.945Z,11.04
2022-09-21T03:35:33.088Z,10.97
2022-09-21T03:40:54.911Z,11.06
2022-09-21T03:46:16.741Z,10.98
2022-09-21T03:51:38.707Z,11.09
2022-09-21T03:57:00.479Z,11.14
2022-09-21T04:02:22.305Z,11.11
2022-09-21T04:07:45.279Z,11.13
2022-09-21T04:13:07.043Z,11.13
2022-09-21T04:18:28.889Z,11.20
2022-09-21T04:23:50.709Z,11.23
2022-09-21T04:29:13.477Z,11.21
2022-09-21T04:34:35.325Z,11.28
2022-09-21T04:39:57.321Z,11.29
2022-09-21T04:45:20.397Z,11.43
2022-09-21T04:50:42.203Z,11.38
2022-09-21T04:56:05.843Z,11.49
2022-09-21T05:01:27.710Z,11.52
2022-09-21T05:06:49.546Z,11.67
2022-09-21T05:12:11.457Z,11.55
2022-09-21T05:17:33.215Z,11.63
2022-09-21T05:22:55.041Z,11.71
2022-09-21T05:28:18.477Z,11.70
2022-09-21T05:33:44.587Z,11.79
2022-09-21T05:39:06.801Z,11.78
2022-09-21T05:44:28.925Z,11.86
2022-09-21T05:50:16.735Z,11.92
2022-09-21T05:56:00.714Z,11.90
2022-09-21T06:01:45.495Z,11.79
2022-09-21T06:07:07.255Z,12.06
2022-09-21T06:12:29.030Z,12.13
2022-09-21T06:17:50.817Z,12.36
2022-09-21T06:23:13.776Z,12.53
2022-09-21T06:28:35.768Z,12.46
2022-09-21T06:33:57.713Z,12.49
2022-09-21T06:39:19.465Z,12.33
2022-09-21T06:44:41.247Z,12.29
2022-09-21T06:50:03.121Z,12.73
2022-09-21T06:55:24.941Z,12.69
2022-09-21T07:00:46.844Z,13.02
2022-09-21T07:06:10.628Z,13.27
2022-09-21T07:11:32.591Z,13.13
2022-09-21T07:16:54.354Z,13.22
2022-09-21T07:22:16.142Z,14.04
2022-09-21T07:27:38.250Z,13.65
2022-09-21T07:33:00.037Z,13.20
2022-09-21T07:38:21.898Z,13.10
2022-09-21T07:43:43.668Z,12.96
2022-09-21T07:49:05.484Z,13.39
2022-09-21T07:54:27.275Z,14.22
2022-09-21T07:59:49.086Z,15.77
2022-09-21T08:05:10.882Z,16.53
2022-09-21T08:10:32.824Z,15.50
2022-09-21T08:16:02.071Z,14.63
2022-09-21T08:21:24.033Z,14.41
2022-09-21T08:26:46.117Z,14.01
2022-09-21T08:32:07.909Z,14.07
2022-09-21T08:37:29.725Z,14.15
2022-09-21T08:43:00.838Z,13.93
2022-09-21T08:48:36.648Z,14.39
2022-09-21T08:54:06.986Z,14.89
2022-09-21T08:59:28.834Z,14.77
2022-09-21T09:05:02.427Z,15.20
2022-09-21T09:10:59.836Z,14.82
2022-09-21T09:16:53.649Z,15.00
2022-09-21T09:22:23.602Z,14.58
2022-09-21T09:27:48.082Z,14.98
2022-09-21T09:33:44.659Z,15.20
2022-09-21T09:39:12.919Z,15.75
2022-09-21T09:45:12.628Z,16.44
2022-09-21T09:50:38.562Z,17.33
2022-09-21T09:56:00.855Z,17.38
2022-09-21T10:01:59.498Z,16.60
2022-09-21T10:07:34.264Z,15.70
2022-09-21T10:13:09.849Z,15.19
2022-09-21T10:18:49.631Z,14.85
2022-09-21T10:24:21.681Z,14.82
2022-09-21T10:29:45.414Z,14.87
2022-09-21T10:35:07.355Z,15.14
2022-09-21T10:40:29.597Z,14.99
2022-09-21T10:45:56.002Z,15.80
2022-09-21T10:51:28.180Z,16.07
2022-09-21T10:56:54.619Z,16.49
2022-09-21T11:02:36.800Z,16.36
2022-09-21T11:08:24.706Z,16.33
2022-09-21T11:13:53.115Z,16.69
2022-09-21T11:19:35.895Z,16.57
2022-09-21T11:25:03.393Z,16.39
2022-09-21T11:30:27.068Z,17.02
2022-09-21T11:35:56.440Z,16.93
2022-09-21T11:41:28.983Z,17.00
2022-09-21T11:47:09.019Z,17.07
2022-09-21T11:53:08.212Z,17.27
2022-09-21T11:58:46.665Z,17.10
2022-09-21T12:04:32.025Z,16.89
2022-09-21T12:10:17.571Z,16.61
2022-09-21T12:16:11.681Z,16.67
2022-09-21T12:21:46.966Z,17.52
2022-09-21T12:27:36.634Z,17.16
2022-09-21T12:33:04.544Z,17.59
2022-09-21T12:38:35.075Z,17.38
2022-09-21T12:44:13.260Z,17.31
2022-09-21T12:49:41.134Z,17.78
2022-09-21T12:55:05.671Z,17.39
2022-09-21T13:00:34.572Z,17.34
2022-09-21T13:06:27.118Z,16.96
2022-09-21T13:11:56.488Z,16.73
2022-09-21T13:17:22.963Z,17.14
2022-09-21T13:22:45.712Z,16.85
2022-09-21T13:28:10.184Z,16.96
2022-09-21T13:33:38.609Z,17.07
2022-09-21T13:39:05.208Z,16.95
2022-09-21T13:44:43.691Z,16.23
2022-09-21T13:50:21.836Z,16.82
2022-09-21T13:56:02.051Z,17.15
2022-09-21T14:01:47.809Z,16.91
2022-09-21T14:07:10.163Z,17.06
2022-09-21T14:12:39.184Z,16.73
2022-09-21T14:18:20.300Z,16.63
2022-09-21T14:23:42.150Z,16.30
2022-09-21T14:29:23.807Z,15.93
2022-09-21T14:34:48.315Z,15.98
2022-09-21T14:40:23.982Z,15.90
2022-09-21T14:46:16.969Z,15.97
2022-09-21T14:52:04.311Z,16.46
2022-09-21T14:57:56.406Z,16.14
2022-09-21T15:03:29.999Z,16.05
2022-09-21T15:08:59.074Z,15.81
2022-09-21T15:14:37.001Z,15.82
2022-09-21T15:20:00.666Z,15.72
2022-09-21T15:25:25.154Z,15.53
2022-09-21T15:30:47.024Z,15.51
2022-09-21T15:36:08.856Z,15.40
2022-09-21T15:41:42.536Z,15.31
2022-09-21T15:47:08.454Z,15.29
2022-09-21T15:52:38.501Z,15.20
2022-09-21T15:58:00.918Z,14.95
2022-09-21T16:03:24.914Z,14.46
2022-09-21T16:08:46.759Z,14.14
2022-09-21T16:14:14.535Z,14.10
2022-09-21T16:19:43.395Z,13.99
2022-09-21T16:25:23.451Z,13.82
2022-09-21T16:30:50.346Z,13.68
2022-09-21T16:36:37.190Z,13.61
2022-09-21T16:42:03.313Z,13.45
2022-09-21T16:47:28.737Z,13.39
2022-09-21T16:52:50.687Z,13.38
2022-09-21T16:58:12.469Z,13.26
2022-09-21T17:03:34.305Z,13.22
2022-09-21T17:08:57.021Z,13.12
2022-09-21T17:14:19.357Z,13.11
2022-09-21T17:19:41.148Z,13.11
2022-09-21T17:25:03.209Z,13.06
2022-09-21T17:30:26.611Z,13.07
2022-09-21T17:35:48.803Z,12.94
2022-09-21T17:41:23.318Z,12.78
2022-09-21T17:47:12.589Z,12.62
2022-09-21T17:52:34.759Z,12.61
2022-09-21T17:58:34.125Z,12.46
2022-09-21T18:03:56.138Z,12.46
2022-09-21T18:09:18.291Z,12.41
2022-09-21T18:15:02.858Z,12.40
2022-09-21T18:20:57.885Z,12.25
2022-09-21T18:26:20.171Z,12.26
2022-09-21T18:31:53.798Z,12.18
2022-09-21T18:37:30.059Z,12.08
2022-09-21T18:43:03.917Z,11.92
2022-09-21T18:48:46.135Z,11.89
2022-09-21T18:54:22.717Z,11.74
2022-09-21T18:59:46.063Z,11.58
2022-09-21T19:05:12.190Z,11.56
2022-09-21T19:10:44.228Z,11.43
2022-09-21T19:16:12.605Z,11.39
2022-09-21T19:21:45.433Z,11.41
2022-09-21T19:27:13.917Z,11.38
2022-09-21T19:32:44.671Z,11.39
2022-09-21T19:38:08.569Z,11.42
2022-09-21T19:43:44.856Z,11.51
2022-09-21T19:49:18.398Z,11.48
2022-09-21T19:54:40.445Z,11.60
2022-09-21T20:00:04.618Z,11.61
2022-09-21T20:05:39.414Z,11.65
2022-09-21T20:11:42.597Z,11.73
2022-09-21T20:17:05.830Z,11.64
2022-09-21T20:22:39.673Z,11.56
2022-09-21T20:28:01.954Z,11.62
2022-09-21T20:33:23.803Z,11.64
2022-09-21T20:38:45.580Z,11.58
2022-09-21T20:44:11.404Z,11.48
2022-09-21T20:49:33.200Z,11.51
2022-09-21T20:54:55.297Z,11.50
2022-09-21T21:00:17.277Z,11.53
2022-09-21T21:05:39.197Z,11.43
2022-09-21T21:11:01.018Z,11.32
2022-09-21T21:16:23.225Z,11.17
2022-09-21T21:21:45.352Z,11.09
2022-09-21T21:27:12.488Z,10.97
2022-09-21T21:32:35.310Z,10.96
2022-09-21T21:37:57.330Z,10.96
2022-09-21T21:43:19.151Z,10.86
2022-09-21T21:48:40.992Z,10.94
2022-09-21T21:54:03.008Z,10.85
2022-09-21T21:59:24.852Z,10.72
2022-09-21T22:04:46.640Z,10.64
2022-09-21T22:10:08.969Z,10.50
2022-09-21T22:15:30.802Z,10.46
2022-09-21T22:20:52.742Z,10.34
2022-09-21T22:26:16.482Z,10.33
2022-09-21T22:31:41.861Z,10.18
2022-09-21T22:37:04.142Z,10.18
2022-09-21T22:42:26.150Z,10.11
2022-09-21T22:47:47.975Z,10.14
2022-09-21T22:53:09.792Z,10.06
2022-09-21T22:58:38.773Z,9.96
2022-09-21T23:04:03.991Z,9.88
2022-09-21T23:09:25.792Z,9.79
2022-09-21T23:14:47.571Z,9.71
2022-09-21T23:20:11.302Z,9.72
2022-09-21T23:25:33.092Z,9.66
2022-09-21T23:31:03.769Z,9.60
2022-09-21T23:36:28.343Z,9.53
2022-09-21T23:41:50.275Z,9.51
2022-09-21T23:47:12.027Z,9.40
2022-09-21T23:52:33.823Z,9.42
2022-09-21T23:57:55.964Z,9.44
